createdAt,value
2023-01-30T00:01:01.407Z,101670.75
2023-01-30T00:03:28.060Z,101668.28
2023-01-30T00:05:54.487Z,101672.31
2023-01-30T00:08:21.456Z,101667.44
2023-01-30T00:10:48.159Z,101666.28
2023-01-30T00:13:15.588Z,101669.97
2023-01-30T00:15:42.790Z,101661.84
2023-01-30T00:18:09.815Z,101654.72
2023-01-30T00:20:36.904Z,101669.00
2023-01-30T00:23:04.673Z,101661.66
2023-01-30T00:25:31.630Z,101659.13
2023-01-30T00:28:01.688Z,101657.78
2023-01-30T00:30:28.757Z,101643.75
2023-01-30T00:32:59.216Z,101648.34
2023-01-30T00:35:28.431Z,101645.41
2023-01-30T00:37:57.176Z,101646.28
2023-01-30T00:40:28.081Z,101634.06
2023-01-30T00:43:14.014Z,101640.97
2023-01-30T00:46:01.763Z,101636.47
2023-01-30T00:48:28.374Z,101645.03
2023-01-30T00:50:54.788Z,101645.28
2023-01-30T00:53:21.267Z,101637.25
2023-01-30T00:55:47.762Z,101634.97
2023-01-30T00:58:14.213Z,101637.97
2023-01-30T01:00:40.735Z,101645.97
2023-01-30T01:03:07.827Z,101636.06
2023-01-30T01:05:34.791Z,101641.91
2023-01-30T01:08:01.816Z,101633.88
2023-01-30T01:10:28.635Z,101636.16
2023-01-30T01:12:55.337Z,101630.13
2023-01-30T01:15:23.512Z,101626.63
2023-01-30T01:17:50.316Z,101625.69
2023-01-30T01:20:18.357Z,101618.09
2023-01-30T01:22:45.052Z,101619.72
2023-01-30T01:25:11.685Z,101604.97
2023-01-30T01:27:38.624Z,101614.75
2023-01-30T01:30:06.596Z,101608.69
2023-01-30T01:32:33.033Z,101611.50
2023-01-30T01:34:59.510Z,101609.00
2023-01-30T01:37:26.142Z,101607.19
2023-01-30T01:40:11.266Z,101597.81
2023-01-30T01:42:38.901Z,101597.25
2023-01-30T01:45:18.023Z,101596.59
2023-01-30T01:48:16.939Z,101596.66
2023-01-30T01:50:49.232Z,101599.19
2023-01-30T01:53:18.891Z,101599.19
2023-01-30T01:55:49.928Z,101598.25
2023-01-30T01:58:41.357Z,101595.25
2023-01-30T02:01:08.100Z,101593.56
2023-01-30T02:03:37.954Z,101592.66
2023-01-30T02:06:04.756Z,101583.75
2023-01-30T02:08:38.896Z,101584.00
2023-01-30T02:11:08.765Z,101584.72
2023-01-30T02:13:35.968Z,101585.03
2023-01-30T02:16:04.201Z,101574.63
2023-01-30T02:18:33.985Z,101578.03
2023-01-30T02:21:22.041Z,101579.25
2023-01-30T02:24:17.697Z,101585.56
2023-01-30T02:26:57.718Z,101584.19
2023-01-30T02:30:12.190Z,101581.84
2023-01-30T02:32:41.352Z,101586.66
2023-01-30T02:35:37.036Z,101574.00
2023-01-30T02:38:24.877Z,101580.28
2023-01-30T02:40:57.484Z,101583.06
2023-01-30T02:43:44.524Z,101576.66
2023-01-30T02:46:52.766Z,101576.66
2023-01-30T02:49:28.322Z,101570.03
2023-01-30T02:51:56.576Z,101567.06
2023-01-30T02:54:23.065Z,101569.38
2023-01-30T02:56:57.266Z,101566.66
2023-01-30T02:59:37.264Z,101553.09
2023-01-30T03:02:28.006Z,101551.06
2023-01-30T03:05:10.288Z,101544.56
2023-01-30T03:07:50.401Z,101538.59
2023-01-30T03:10:38.151Z,101528.56
2023-01-30T03:13:21.001Z,101524.19
2023-01-30T03:15:59.544Z,101515.25
2023-01-30T03:18:28.428Z,101514.06
2023-01-30T03:20:55.021Z,101507.38
2023-01-30T03:23:24.243Z,101506.63
2023-01-30T03:25:51.121Z,101501.06
2023-01-30T03:28:21.253Z,101504.47
2023-01-30T03:30:47.825Z,101497.06
2023-01-30T03:33:14.290Z,101498.69
2023-01-30T03:35:41.311Z,101495.50
2023-01-30T03:38:08.237Z,101484.19
2023-01-30T03:40:34.780Z,101480.75
2023-01-30T03:43:01.191Z,101481.94
2023-01-30T03:45:27.603Z,101478.78
2023-01-30T03:47:54.117Z,101474.84
2023-01-30T03:50:20.579Z,101469.34
2023-01-30T03:52:47.004Z,101473.25
2023-01-30T03:55:13.526Z,101474.38
2023-01-30T03:57:39.956Z,101482.88
2023-01-30T04:00:06.993Z,101473.97
2023-01-30T04:02:33.431Z,101469.94
2023-01-30T04:04:59.945Z,101463.03
2023-01-30T04:07:29.582Z,101458.78
2023-01-30T04:09:55.987Z,101459.03
2023-01-30T04:12:22.377Z,101449.84
2023-01-30T04:14:48.780Z,101456.09
2023-01-30T04:17:15.259Z,101438.63
2023-01-30T04:19:41.695Z,101452.44
2023-01-30T04:22:08.105Z,101448.97
2023-01-30T04:24:34.489Z,101445.78
2023-01-30T04:27:00.951Z,101444.19
2023-01-30T04:29:27.370Z,101438.28
2023-01-30T04:31:53.808Z,101438.53
2023-01-30T04:34:20.286Z,101438.28
2023-01-30T04:36:46.724Z,101430.75
2023-01-30T04:39:13.107Z,101430.75
2023-01-30T04:41:39.524Z,101440.41
2023-01-30T04:44:07.105Z,101431.25
2023-01-30T04:46:34.435Z,101424.63
2023-01-30T04:49:00.843Z,101416.59
2023-01-30T04:51:27.228Z,101413.63
2023-01-30T04:53:53.662Z,101422.78
2023-01-30T04:56:20.133Z,101428.72
2023-01-30T04:58:46.530Z,101433.97
2023-01-30T05:01:17.143Z,101428.91
2023-01-30T05:03:43.589Z,101430.03
2023-01-30T05:06:10.002Z,101429.38
2023-01-30T05:08:36.419Z,101423.66
2023-01-30T05:11:02.831Z,101429.56
2023-01-30T05:13:29.234Z,101422.28
2023-01-30T05:15:55.809Z,101426.91
2023-01-30T05:18:22.198Z,101425.97
2023-01-30T05:20:48.590Z,101427.28
2023-01-30T05:23:14.973Z,101427.78
2023-01-30T05:25:41.474Z,101430.59
2023-01-30T05:28:07.882Z,101426.84
2023-01-30T05:30:34.422Z,101436.00
2023-01-30T05:33:00.824Z,101432.56
2023-01-30T05:35:27.211Z,101438.28
2023-01-30T05:37:53.647Z,101439.00
2023-01-30T05:40:20.036Z,101434.16
2023-01-30T05:42:46.424Z,101444.47
2023-01-30T05:45:12.834Z,101442.38
2023-01-30T05:47:39.247Z,101443.78
2023-01-30T05:50:05.914Z,101437.88
2023-01-30T05:52:32.324Z,101442.47
2023-01-30T05:54:58.732Z,101442.47
2023-01-30T05:57:25.154Z,101454.19
2023-01-30T05:59:51.582Z,101450.03
2023-01-30T06:02:17.978Z,101439.47
2023-01-30T06:04:44.373Z,101431.44
2023-01-30T06:07:10.756Z,101433.78
2023-01-30T06:09:37.184Z,101432.88
2023-01-30T06:12:03.742Z,101436.50
2023-01-30T06:14:30.145Z,101427.34
2023-01-30T06:16:56.612Z,101431.44
2023-01-30T06:19:23.200Z,101440.59
2023-01-30T06:21:49.625Z,101443.41
2023-01-30T06:24:16.017Z,101442.00
2023-01-30T06:26:42.457Z,101449.78
2023-01-30T06:29:08.901Z,101440.56
2023-01-30T06:31:35.398Z,101452.31
2023-01-30T06:34:01.807Z,101447.13
2023-01-30T06:36:28.192Z,101439.38
2023-01-30T06:38:54.621Z,101440.50
2023-01-30T06:41:21.445Z,101437.09
2023-01-30T06:43:47.954Z,101430.22
2023-01-30T06:46:14.613Z,101441.94
2023-01-30T06:48:41.092Z,101446.28
2023-01-30T06:51:07.506Z,101441.19
2023-01-30T06:53:33.915Z,101430.16
2023-01-30T06:56:01.731Z,101423.97
2023-01-30T06:58:28.368Z,101433.88
2023-01-30T07:00:54.898Z,101443.97
2023-01-30T07:03:21.331Z,101446.19
2023-01-30T07:05:48.362Z,101452.56
2023-01-30T07:08:30.558Z,101434.69
2023-01-30T07:10:56.986Z,101448.00
2023-01-30T07:13:23.380Z,101444.78
2023-01-30T07:15:50.539Z,101440.22
2023-01-30T07:18:16.972Z,101447.50
2023-01-30T07:20:47.782Z,101452.56
2023-01-30T07:23:14.190Z,101442.84
2023-01-30T07:25:40.634Z,101449.00
2023-01-30T07:28:07.143Z,101441.84
2023-01-30T07:30:36.083Z,101435.19
2023-01-30T07:33:04.976Z,101440.69
2023-01-30T07:35:34.290Z,101441.00
2023-01-30T07:38:00.724Z,101436.38
2023-01-30T07:40:27.681Z,101431.16
2023-01-30T07:43:02.689Z,101420.56
2023-01-30T07:45:35.260Z,101420.47
2023-01-30T07:48:01.668Z,101419.72
2023-01-30T07:50:28.263Z,101423.88
2023-01-30T07:52:54.998Z,101420.38
2023-01-30T07:55:24.811Z,101412.03
2023-01-30T07:57:51.232Z,101405.19
2023-01-30T08:00:18.664Z,101410.00
2023-01-30T08:02:45.315Z,101407.66
2023-01-30T08:05:12.170Z,101400.53
2023-01-30T08:07:44.581Z,101393.50
2023-01-30T08:10:12.163Z,101382.44
2023-01-30T08:12:42.467Z,101378.22
2023-01-30T08:15:10.296Z,101376.59
2023-01-30T08:17:37.020Z,101392.06
2023-01-30T08:20:04.571Z,101401.13
2023-01-30T08:22:31.121Z,101404.69
2023-01-30T08:24:57.541Z,101401.88
2023-01-30T08:27:23.963Z,101417.41
2023-01-30T08:29:50.516Z,101428.63
2023-01-30T08:32:16.945Z,101415.00
2023-01-30T08:34:52.153Z,101412.72
2023-01-30T08:37:18.605Z,101407.81
2023-01-30T08:39:45.082Z,101403.44
2023-01-30T08:42:11.566Z,101394.50
2023-01-30T08:44:38.045Z,101390.50
2023-01-30T08:47:04.479Z,101387.81
2023-01-30T08:49:40.746Z,101388.97
2023-01-30T08:52:07.230Z,101392.03
2023-01-30T08:54:33.751Z,101372.75
2023-01-30T08:57:00.184Z,101372.88
2023-01-30T08:59:26.630Z,101362.97
2023-01-30T09:01:53.080Z,101370.00
2023-01-30T09:04:19.510Z,101373.34
2023-01-30T09:06:45.913Z,101382.50
2023-01-30T09:09:12.368Z,101394.41
2023-01-30T09:11:38.843Z,101390.13
2023-01-30T09:14:05.284Z,101376.06
2023-01-30T09:16:31.897Z,101364.22
2023-01-30T09:18:58.316Z,101363.94
2023-01-30T09:21:25.189Z,101358.53
2023-01-30T09:23:51.629Z,101360.38
2023-01-30T09:26:18.198Z,101350.75
2023-01-30T09:28:44.677Z,101349.03
2023-01-30T09:31:11.220Z,101347.69
2023-01-30T09:33:37.765Z,101361.09
2023-01-30T09:36:04.555Z,101366.16
2023-01-30T09:38:31.191Z,101384.94
2023-01-30T09:41:22.074Z,101388.59
2023-01-30T09:44:03.131Z,101391.44
2023-01-30T09:47:03.811Z,101383.31
2023-01-30T09:49:50.674Z,101373.16
2023-01-30T09:52:31.377Z,101358.56
2023-01-30T09:55:19.738Z,101340.69
2023-01-30T09:57:48.962Z,101342.34
2023-01-30T10:00:49.106Z,101341.53
2023-01-30T10:03:24.226Z,101335.63
2023-01-30T10:05:59.310Z,101336.94
2023-01-30T10:08:52.035Z,101336.56
2023-01-30T10:11:30.907Z,101333.69
2023-01-30T10:14:20.914Z,101324.38
2023-01-30T10:16:58.747Z,101328.22
2023-01-30T10:19:53.345Z,101315.53
2023-01-30T10:22:47.156Z,101306.72
2023-01-30T10:25:38.510Z,101292.84
2023-01-30T10:28:36.776Z,101277.09
2023-01-30T10:31:19.234Z,101273.94
2023-01-30T10:34:07.625Z,101261.97
2023-01-30T10:36:41.076Z,101264.75
2023-01-30T10:39:21.386Z,101274.97
2023-01-30T10:42:10.215Z,101274.72
2023-01-30T10:44:39.150Z,101259.22
2023-01-30T10:47:47.150Z,101260.41
2023-01-30T10:50:24.411Z,101243.50
2023-01-30T10:53:08.185Z,101235.03
2023-01-30T10:55:46.881Z,101232.19
2023-01-30T10:58:17.738Z,101230.78
2023-01-30T11:00:56.059Z,101199.69
2023-01-30T11:03:47.957Z,101173.56
2023-01-30T11:06:18.729Z,101171.78
2023-01-30T11:08:45.954Z,101163.78
2023-01-30T11:11:26.705Z,101178.03
2023-01-30T11:14:10.480Z,101179.13
2023-01-30T11:16:53.868Z,101157.66
2023-01-30T11:19:24.262Z,101139.28
2023-01-30T11:21:53.581Z,101130.72
2023-01-30T11:24:23.452Z,101127.81
2023-01-30T11:27:12.408Z,101126.72
2023-01-30T11:29:39.593Z,101134.56
2023-01-30T11:32:19.576Z,101131.81
2023-01-30T11:35:24.360Z,101113.25
2023-01-30T11:37:53.308Z,101112.50
2023-01-30T11:40:25.619Z,101110.34
2023-01-30T11:43:10.487Z,101091.75
2023-01-30T11:45:40.753Z,101090.50
2023-01-30T11:48:31.301Z,101097.59
2023-01-30T11:51:06.135Z,101099.75
2023-01-30T11:53:40.311Z,101093.91
2023-01-30T11:56:17.282Z,101082.59
2023-01-30T11:58:47.992Z,101076.75
2023-01-30T12:01:16.151Z,101062.16
2023-01-30T12:03:52.143Z,101060.69
2023-01-30T12:06:32.944Z,101059.25
2023-01-30T12:09:00.074Z,101053.38
2023-01-30T12:11:35.286Z,101046.63
2023-01-30T12:14:25.438Z,101036.56
2023-01-30T12:17:12.400Z,101035.78
2023-01-30T12:20:01.193Z,101028.84
2023-01-30T12:22:38.120Z,101037.72
2023-01-30T12:25:31.194Z,101039.03
2023-01-30T12:28:02.417Z,101025.53
2023-01-30T12:30:56.626Z,101042.63
2023-01-30T12:33:28.620Z,101050.91
2023-01-30T12:36:19.460Z,101037.38
2023-01-30T12:39:10.819Z,101037.31
2023-01-30T12:41:51.402Z,101007.06
2023-01-30T12:44:23.617Z,100967.09
2023-01-30T12:47:25.696Z,100947.22
2023-01-30T12:50:36.599Z,100940.47
2023-01-30T12:53:21.775Z,100940.66
2023-01-30T12:56:17.796Z,100943.22
2023-01-30T12:58:50.851Z,100934.53
2023-01-30T13:01:25.423Z,100928.03
2023-01-30T13:04:16.723Z,100922.66
2023-01-30T13:07:10.748Z,100923.34
2023-01-30T13:09:40.191Z,100932.88
2023-01-30T13:12:13.384Z,100921.94
2023-01-30T13:14:57.148Z,100919.38
2023-01-30T13:17:44.519Z,100916.47
2023-01-30T13:20:23.109Z,100919.72
2023-01-30T13:23:18.495Z,100918.88
2023-01-30T13:26:01.004Z,100911.56
2023-01-30T13:28:50.171Z,100892.16
2023-01-30T13:31:24.306Z,100883.28
2023-01-30T13:34:03.437Z,100876.91
2023-01-30T13:36:54.273Z,100871.00
2023-01-30T13:39:42.613Z,100868.03
2023-01-30T13:42:23.342Z,100872.31
2023-01-30T13:44:51.727Z,100871.50
2023-01-30T13:47:23.424Z,100861.28
2023-01-30T13:50:12.794Z,100858.22
2023-01-30T13:52:46.006Z,100862.94
2023-01-30T13:55:49.557Z,100857.47
2023-01-30T13:58:25.146Z,100861.59
2023-01-30T14:00:53.804Z,100857.56
2023-01-30T14:03:25.084Z,100863.56
2023-01-30T14:05:51.717Z,100855.91
2023-01-30T14:08:22.641Z,100845.53
2023-01-30T14:10:50.234Z,100855.75
2023-01-30T14:13:19.764Z,100849.50
2023-01-30T14:16:02.565Z,100848.72
2023-01-30T14:18:38.478Z,100836.88
2023-01-30T14:21:31.046Z,100831.91
2023-01-30T14:24:00.572Z,100822.94
2023-01-30T14:26:48.713Z,100818.91
2023-01-30T14:29:40.953Z,100817.31
2023-01-30T14:32:14.029Z,100812.84
2023-01-30T14:34:44.489Z,100806.56
2023-01-30T14:37:41.488Z,100801.56
2023-01-30T14:40:22.831Z,100802.38
2023-01-30T14:43:27.606Z,100794.06
2023-01-30T14:46:02.610Z,100801.59
2023-01-30T14:48:48.236Z,100804.78
2023-01-30T14:51:25.946Z,100794.22
2023-01-30T14:53:57.692Z,100786.38
2023-01-30T14:57:01.450Z,100778.91
2023-01-30T14:59:38.815Z,100776.50
2023-01-30T15:02:14.382Z,100787.63
2023-01-30T15:04:46.656Z,100781.28
2023-01-30T15:07:37.996Z,100782.75
2023-01-30T15:10:23.581Z,100777.16
2023-01-30T15:13:05.188Z,100774.28
2023-01-30T15:15:54.915Z,100776.53
2023-01-30T15:18:43.116Z,100787.94
2023-01-30T15:21:37.575Z,100778.25
2023-01-30T15:24:41.678Z,100775.69
2023-01-30T15:27:45.305Z,100787.41
2023-01-30T15:30:29.929Z,100786.38
2023-01-30T15:33:19.878Z,100780.00
2023-01-30T15:35:49.215Z,100783.88
2023-01-30T15:38:28.105Z,100775.56
2023-01-30T15:40:57.871Z,100776.72
2023-01-30T15:43:27.381Z,100775.88
2023-01-30T15:46:06.062Z,100779.00
2023-01-30T15:48:58.818Z,100777.91
2023-01-30T15:51:30.888Z,100790.69
2023-01-30T15:53:59.279Z,100785.59
2023-01-30T15:56:31.396Z,100782.84
2023-01-30T15:59:00.631Z,100786.34
2023-01-30T16:01:27.434Z,100785.25
2023-01-30T16:03:54.234Z,100788.97
2023-01-30T16:06:34.493Z,100789.78
2023-01-30T16:09:06.831Z,100796.94
2023-01-30T16:11:33.191Z,100805.00
2023-01-30T16:14:01.402Z,100804.50
2023-01-30T16:16:29.047Z,100802.34
2023-01-30T16:18:59.274Z,100792.38
2023-01-30T16:21:31.031Z,100794.06
2023-01-30T16:24:06.790Z,100802.75
2023-01-30T16:26:35.697Z,100802.81
2023-01-30T16:29:11.415Z,100806.84
2023-01-30T16:31:39.841Z,100807.59
2023-01-30T16:34:17.681Z,100799.09
2023-01-30T16:36:47.528Z,100807.66
2023-01-30T16:39:45.639Z,100802.94
2023-01-30T16:42:26.156Z,100794.78
2023-01-30T16:45:08.199Z,100805.94
2023-01-30T16:47:34.706Z,100812.31
2023-01-30T16:50:01.222Z,100801.47
2023-01-30T16:52:41.122Z,100801.78
2023-01-30T16:55:18.511Z,100806.56
2023-01-30T16:57:52.426Z,100800.06
2023-01-30T17:00:33.784Z,100801.56
2023-01-30T17:03:03.785Z,100798.69
2023-01-30T17:05:37.706Z,100795.81
2023-01-30T17:08:04.332Z,100794.72
2023-01-30T17:10:51.977Z,100804.69
2023-01-30T17:13:37.348Z,100795.94
2023-01-30T17:16:22.047Z,100806.00
2023-01-30T17:18:49.674Z,100792.06
2023-01-30T17:21:17.192Z,100785.38
2023-01-30T17:23:54.692Z,100786.50
2023-01-30T17:26:21.258Z,100787.59
2023-01-30T17:28:47.755Z,100803.28
2023-01-30T17:31:16.217Z,100802.56
2023-01-30T17:33:43.109Z,100801.47
2023-01-30T17:36:22.408Z,100810.94
2023-01-30T17:38:50.890Z,100803.66
2023-01-30T17:41:27.094Z,100812.78
2023-01-30T17:43:53.473Z,100802.44
2023-01-30T17:46:23.747Z,100810.94
2023-01-30T17:48:51.693Z,100812.38
2023-01-30T17:51:18.168Z,100818.03
2023-01-30T17:53:44.586Z,100821.34
2023-01-30T17:56:22.010Z,100812.06
2023-01-30T17:58:50.603Z,100808.81
2023-01-30T18:01:18.925Z,100829.19
2023-01-30T18:03:45.843Z,100831.94
2023-01-30T18:06:14.319Z,100824.50
2023-01-30T18:08:41.525Z,100825.41
2023-01-30T18:11:12.077Z,100816.31
2023-01-30T18:13:39.971Z,100825.44
2023-01-30T18:16:06.697Z,100826.50
2023-01-30T18:18:33.306Z,100832.81
2023-01-30T18:20:59.745Z,100822.25
2023-01-30T18:23:26.204Z,100822.28
2023-01-30T18:25:52.603Z,100821.94
2023-01-30T18:28:18.984Z,100832.13
2023-01-30T18:30:45.486Z,100828.88
2023-01-30T18:33:12.012Z,100824.84
2023-01-30T18:35:39.029Z,100830.88
2023-01-30T18:38:05.490Z,100834.50
2023-01-30T18:40:31.916Z,100822.13
2023-01-30T18:42:58.423Z,100813.97
2023-01-30T18:45:24.851Z,100813.81
2023-01-30T18:47:52.452Z,100813.06
2023-01-30T18:50:19.350Z,100809.25
2023-01-30T18:52:47.319Z,100816.16
2023-01-30T18:55:13.820Z,100809.25
2023-01-30T18:57:40.252Z,100815.25
2023-01-30T19:00:07.477Z,100812.50
2023-01-30T19:02:34.021Z,100806.34
2023-01-30T19:05:00.516Z,100809.25
2023-01-30T19:07:26.926Z,100817.63
2023-01-30T19:09:56.453Z,100805.25
2023-01-30T19:12:42.406Z,100809.25
2023-01-30T19:15:09.414Z,100813.97
2023-01-30T19:17:35.927Z,100814.00
2023-01-30T19:20:04.697Z,100810.50
2023-01-30T19:22:31.072Z,100802.72
2023-01-30T19:24:57.546Z,100811.44
2023-01-30T19:27:24.521Z,100807.63
2023-01-30T19:29:51.076Z,100807.97
2023-01-30T19:32:17.468Z,100813.25
2023-01-30T19:34:45.131Z,100810.34
2023-01-30T19:37:11.525Z,100805.63
2023-01-30T19:39:37.907Z,100811.25
2023-01-30T19:42:04.511Z,100828.16
2023-01-30T19:44:30.981Z,100820.84
2023-01-30T19:46:57.424Z,100840.09
2023-01-30T19:49:23.813Z,100834.47
2023-01-30T19:51:50.228Z,100834.59
2023-01-30T19:54:16.784Z,100842.22
2023-01-30T19:56:47.299Z,100839.81
2023-01-30T19:59:15.966Z,100850.88
2023-01-30T20:01:42.558Z,100857.75
2023-01-30T20:04:09.089Z,100869.69
2023-01-30T20:06:37.422Z,100872.06
2023-01-30T20:09:06.695Z,100873.66
2023-01-30T20:11:35.410Z,100869.47
2023-01-30T20:14:02.023Z,100875.31
2023-01-30T20:16:29.642Z,100868.78
2023-01-30T20:18:59.421Z,100859.97
2023-01-30T20:21:26.913Z,100867.09
2023-01-30T20:23:54.131Z,100864.44
2023-01-30T20:26:24.492Z,100869.50
2023-01-30T20:28:51.177Z,100861.88
2023-01-30T20:31:20.661Z,100872.03
2023-01-30T20:33:47.408Z,100885.44
2023-01-30T20:36:18.585Z,100886.22
2023-01-30T20:38:46.692Z,100882.97
2023-01-30T20:41:18.446Z,100879.88
2023-01-30T20:43:46.883Z,100883.72
2023-01-30T20:46:16.745Z,100886.22
2023-01-30T20:48:43.685Z,100883.69
2023-01-30T20:51:12.686Z,100884.06
2023-01-30T20:53:40.047Z,100890.03
2023-01-30T20:56:07.098Z,100901.22
2023-01-30T20:58:33.566Z,100894.16
2023-01-30T21:01:18.579Z,100899.59
2023-01-30T21:03:48.020Z,100898.44
2023-01-30T21:06:14.869Z,100907.06
2023-01-30T21:09:02.436Z,100908.69
2023-01-30T21:11:29.172Z,100924.34
2023-01-30T21:13:55.662Z,100923.03
2023-01-30T21:16:24.933Z,100925.88
2023-01-30T21:18:54.590Z,100926.03
2023-01-30T21:21:29.843Z,100940.13
2023-01-30T21:23:58.714Z,100950.31
2023-01-30T21:26:27.695Z,100951.31
2023-01-30T21:28:55.245Z,100959.41
2023-01-30T21:31:24.830Z,100951.75
2023-01-30T21:33:51.527Z,100957.59
2023-01-30T21:36:18.407Z,100960.31
2023-01-30T21:39:03.424Z,100977.72
2023-01-30T21:41:54.646Z,100988.34
2023-01-30T21:44:25.585Z,101011.78
2023-01-30T21:46:52.224Z,101003.28
2023-01-30T21:49:19.404Z,101005.59
2023-01-30T21:51:48.382Z,101005.59
2023-01-30T21:54:16.024Z,101016.66
2023-01-30T21:56:42.735Z,101020.50
2023-01-30T21:59:10.009Z,101017.97
2023-01-30T22:01:37.674Z,101023.91
2023-01-30T22:04:08.526Z,101029.03
2023-01-30T22:06:36.846Z,101035.47
2023-01-30T22:09:05.659Z,101040.75
2023-01-30T22:11:34.760Z,101055.13
2023-01-30T22:14:01.214Z,101062.88
2023-01-30T22:16:29.305Z,101066.88
2023-01-30T22:18:56.934Z,101053.63
2023-01-30T22:21:26.429Z,101055.09
2023-01-30T22:23:54.768Z,101063.31
2023-01-30T22:26:23.647Z,101073.84
2023-01-30T22:28:58.251Z,101087.84
2023-01-30T22:31:26.698Z,101097.91
2023-01-30T22:33:55.668Z,101100.03
2023-01-30T22:36:27.209Z,101095.28
2023-01-30T22:38:54.334Z,101108.47
2023-01-30T22:41:23.999Z,101117.78
2023-01-30T22:43:56.273Z,101125.31
2023-01-30T22:46:25.365Z,101124.88
2023-01-30T22:48:52.660Z,101132.56
2023-01-30T22:51:24.480Z,101133.69
2023-01-30T22:53:53.363Z,101134.41
2023-01-30T22:56:22.960Z,101133.91
2023-01-30T22:58:50.567Z,101136.81
2023-01-30T23:01:28.324Z,101141.28
2023-01-30T23:03:57.755Z,101146.38
2023-01-30T23:06:25.218Z,101161.16
2023-01-30T23:08:54.054Z,101155.50
2023-01-30T23:11:24.404Z,101171.28
2023-01-30T23:13:53.686Z,101182.97
2023-01-30T23:16:22.464Z,101186.00
2023-01-30T23:18:55.903Z,101177.38
2023-01-30T23:21:31.772Z,101170.38
2023-01-30T23:24:00.603Z,101185.50
2023-01-30T23:26:30.772Z,101185.91
2023-01-30T23:28:58.002Z,101177.38
2023-01-30T23:31:26.665Z,101192.81
2023-01-30T23:33:58.560Z,101197.97
2023-01-30T23:36:25.733Z,101202.41
2023-01-30T23:38:53.910Z,101204.88
2023-01-30T23:41:25.200Z,101214.41
2023-01-30T23:43:52.262Z,101204.06
2023-01-30T23:46:27.829Z,101216.66
2023-01-30T23:48:57.241Z,101220.09
2023-01-30T23:51:25.728Z,101216.53
2023-01-30T23:53:52.699Z,101218.44
2023-01-30T23:56:20.633Z,101217.03
2023-01-30T23:58:47.581Z,101228.59
